Time;durP1;ratioP1;P1;durP2;ratioP2;P2;SDS_P1;SDS_P2;PMS_P1;PMS_P2;Temp;Humidity;BMP_temperature;BMP_pressure;BME280_temperature;BME280_humidity;BME280_pressure;Samples;Min_cycle;Max_cycle;Signal;HPM_P1;HPM_P2
2023/01/24 00:01:21;;;;;;;24.00;12.27;;;;;;;-142.75;100.00;80121.03;5020539;28;20112;-67
2023/01/24 00:03:46;;;;;;;23.00;12.70;;;;;;;-142.75;100.00;80119.06;5020763;28;20039;-66
2023/01/24 00:06:12;;;;;;;21.42;12.10;;;;;;;-142.75;100.00;80099.34;5020364;28;20826;-65
2023/01/24 00:08:37;;;;;;;25.27;11.60;;;;;;;-142.75;100.00;80103.28;5020095;28;20036;-66
2023/01/24 00:11:05;;;;;;;20.90;12.00;;;;;;;-142.75;100.00;80095.41;5038430;28;20934;-66
2023/01/24 00:13:32;;;;;;;18.57;11.47;;;;;;;-142.75;100.00;80091.47;5040015;28;20071;-68
2023/01/24 00:16:05;;;;;;;22.73;12.30;;;;;;;-142.75;100.00;80101.31;5040011;28;20046;-64
2023/01/24 00:18:32;;;;;;;21.90;11.97;;;;;;;-142.75;100.00;80107.22;5032703;28;20129;-67
2023/01/24 00:21:08;;;;;;;24.23;12.80;;;;;;;-142.75;100.00;80093.44;5040115;28;20083;-66
2023/01/24 00:23:34;;;;;;;21.15;11.48;;;;;;;-142.75;100.00;80103.28;5040120;28;20040;-67
2023/01/24 00:25:59;;;;;;;20.08;11.55;;;;;;;-142.75;100.00;80111.19;5039257;28;20017;-65
2023/01/24 00:28:24;;;;;;;24.02;12.20;;;;;;;-142.75;100.00;80136.78;5019398;28;20029;-67
2023/01/24 00:30:50;;;;;;;21.70;12.35;;;;;;;-142.75;100.00;80123.00;5020426;28;20055;-67
2023/01/24 00:33:15;;;;;;;23.85;11.90;;;;;;;-142.75;100.00;80111.19;5011500;28;20921;-66
2023/01/24 00:35:40;;;;;;;22.13;12.57;;;;;;;-142.75;100.00;80119.06;5039710;28;21456;-68
2023/01/24 00:38:05;;;;;;;26.65;12.50;;;;;;;-142.75;100.00;80111.19;5038916;28;20037;-67
2023/01/24 00:40:31;;;;;;;22.25;12.23;;;;;;;-142.75;100.00;80138.75;5039618;28;20029;-67
2023/01/24 00:42:56;;;;;;;23.98;12.27;;;;;;;-142.75;100.00;80099.34;5039014;28;20047;-66
2023/01/24 00:45:21;;;;;;;24.02;11.88;;;;;;;-142.75;100.00;80103.28;5039522;28;20545;-65
2023/01/24 00:47:47;;;;;;;24.92;12.80;;;;;;;-142.75;100.00;80113.16;5038973;28;20033;-67
2023/01/24 00:50:12;;;;;;;21.10;11.60;;;;;;;-142.75;100.00;80093.44;5021525;28;20021;-65
2023/01/24 00:52:37;;;;;;;22.08;12.20;;;;;;;-142.75;100.00;80099.34;5039944;28;20017;-68
2023/01/24 00:55:03;;;;;;;21.20;12.10;;;;;;;-142.75;100.00;80091.47;5039776;28;20728;-67
2023/01/24 00:57:28;;;;;;;21.42;11.90;;;;;;;-142.75;100.00;80087.53;5038863;28;20021;-66
2023/01/24 00:59:54;;;;;;;22.67;12.02;;;;;;;-142.75;100.00;80097.38;5039516;28;20052;-67
2023/01/24 01:02:19;;;;;;;20.98;11.98;;;;;;;-142.75;100.00;80103.28;5021168;28;20037;-66
2023/01/24 01:04:44;;;;;;;25.55;12.25;;;;;;;-142.75;100.00;80093.44;5021276;28;20151;-66
2023/01/24 01:07:10;;;;;;;20.67;11.50;;;;;;;-142.75;100.00;80083.59;5038292;28;20163;-67
2023/01/24 01:09:35;;;;;;;19.45;11.15;;;;;;;-142.75;100.00;80095.41;5039156;28;20029;-66
2023/01/24 01:12:00;;;;;;;20.83;11.18;;;;;;;-142.75;100.00;80121.03;5040122;28;20465;-68
2023/01/24 01:14:26;;;;;;;22.80;12.18;;;;;;;-142.75;100.00;80099.34;5039550;28;20476;-68
2023/01/24 01:16:51;;;;;;;22.30;12.38;;;;;;;-142.75;100.00;80093.44;5038381;28;20024;-68
2023/01/24 01:19:16;;;;;;;22.15;12.75;;;;;;;-142.75;100.00;80077.69;5039019;28;20021;-66
2023/01/24 01:21:44;;;;;;;19.02;12.02;;;;;;;-142.75;100.00;80063.88;5038898;28;20825;-67
2023/01/24 01:24:09;;;;;;;22.13;12.83;;;;;;;-142.75;100.00;80046.16;5039084;28;20116;-68
2023/01/24 01:26:35;;;;;;;22.58;12.13;;;;;;;-142.75;100.00;80069.81;5038235;28;20047;-65
2023/01/24 01:29:00;;;;;;;20.15;10.90;;;;;;;-142.75;100.00;80087.53;5020963;28;20131;-69
2023/01/24 01:31:25;;;;;;;21.30;12.07;;;;;;;-142.75;100.00;80067.84;5038944;28;20039;-67
2023/01/24 01:33:51;;;;;;;22.20;12.27;;;;;;;-142.75;100.00;80071.78;5039199;28;20017;-68
2023/01/24 01:36:16;;;;;;;20.80;11.80;;;;;;;-142.75;100.00;80075.72;5019694;28;20029;-68
2023/01/24 01:38:41;;;;;;;20.90;11.32;;;;;;;-142.75;100.00;80075.72;5018306;28;20148;-68
2023/01/24 01:41:07;;;;;;;19.83;11.85;;;;;;;-142.75;100.00;80065.84;5018429;28;20032;-66
2023/01/24 01:43:32;;;;;;;20.98;11.63;;;;;;;-142.75;100.00;80059.94;5019238;28;20024;-68
2023/01/24 01:46:19;;;;;;;21.10;13.15;;;;;;;-142.75;100.00;80073.75;5018637;28;20075;-67
2023/01/24 01:48:48;;;;;;;19.77;11.48;;;;;;;-142.75;100.00;80052.06;5018199;28;20462;-68
2023/01/24 01:51:37;;;;;;;20.83;11.90;;;;;;;-142.75;100.00;80057.97;5001201;28;20106;-68
2023/01/24 01:54:25;;;;;;;20.90;11.67;;;;;;;-142.75;100.00;80073.75;5018815;28;20434;-66
2023/01/24 01:57:13;;;;;;;24.00;12.50;;;;;;;-142.75;100.00;80099.34;5017470;28;20482;-68
2023/01/24 01:59:46;;;;;;;21.40;12.37;;;;;;;-142.75;100.00;80075.72;5019002;28;20080;-68
2023/01/24 02:02:11;;;;;;;23.77;12.23;;;;;;;-142.75;100.00;80087.53;5018877;28;20029;-68
2023/01/24 02:04:40;;;;;;;23.30;12.30;;;;;;;-142.75;100.00;80117.09;5018931;28;20356;-68
2023/01/24 02:07:10;;;;;;;20.67;11.53;;;;;;;-142.75;100.00;80103.28;5017890;28;20399;-66
2023/01/24 02:09:45;;;;;;;22.07;12.17;;;;;;;-142.75;100.00;80101.31;5018723;28;20050;-68
2023/01/24 02:12:15;;;;;;;24.53;12.50;;;;;;;-142.75;100.00;80119.06;5018285;28;20038;-68
2023/01/24 02:17:27;;;;;;;20.67;11.77;;;;;;;-142.75;100.00;80109.22;5018023;28;20036;-67
2023/01/24 02:20:07;;;;;;;23.63;11.75;;;;;;;-142.75;100.00;80071.78;5018839;28;20030;-67
2023/01/24 02:22:35;;;;;;;19.93;10.50;;;;;;;-142.75;100.00;80107.22;5018571;28;20025;-68
2023/01/24 02:25:29;;;;;;;20.93;11.63;;;;;;;-142.75;100.00;80126.94;5018423;28;20028;-68
2023/01/24 02:27:55;;;;;;;20.60;11.13;;;;;;;-142.75;100.00;80128.91;5018135;28;20466;-68
2023/01/24 02:30:20;;;;;;;23.07;11.53;;;;;;;-142.75;100.00;80119.06;5018231;28;20033;-66
2023/01/24 02:32:46;;;;;;;19.88;11.25;;;;;;;-142.75;100.00;80140.72;5018508;28;20026;-67
2023/01/24 02:35:30;;;;;;;20.33;10.48;;;;;;;-142.75;100.00;80138.75;5000946;28;20076;-68
2023/01/24 02:37:58;;;;;;;19.90;11.23;;;;;;;-142.75;100.00;80154.53;4999970;28;20029;-66
2023/01/24 02:40:27;;;;;;;19.40;11.77;;;;;;;-142.75;100.00;80119.06;5018929;28;20029;-68
2023/01/24 02:42:55;;;;;;;20.57;10.90;;;;;;;-142.75;100.00;80109.22;5018672;28;20108;-68
2023/01/24 02:45:23;;;;;;;22.30;11.77;;;;;;;-142.75;100.00;80095.41;5000799;28;20029;-67
2023/01/24 02:47:51;;;;;;;18.90;10.87;;;;;;;-142.75;100.00;80138.75;5017946;28;20040;-67
2023/01/24 02:50:18;;;;;;;21.83;11.63;;;;;;;-142.75;100.00;80144.66;5018577;28;20119;-67
2023/01/24 02:55:32;;;;;;;19.93;11.47;;;;;;;-142.75;100.00;80121.03;5018529;28;20087;-69
2023/01/24 02:58:07;;;;;;;21.15;11.75;;;;;;;-142.75;100.00;80128.91;5017463;28;20025;-67
2023/01/24 03:00:41;;;;;;;24.53;12.53;;;;;;;-142.75;100.00;80105.25;5018272;28;20026;-68
2023/01/24 03:03:07;;;;;;;21.43;11.40;;;;;;;-142.75;100.00;80085.56;5018080;28;20025;-66
2023/01/24 03:06:18;;;;;;;22.37;12.33;;;;;;;-142.75;100.00;80099.34;5000490;28;20573;-68
2023/01/24 03:08:19;;;;;;;21.45;12.00;;;;;;;-142.75;100.00;80099.34;5009987;28;20025;-68
2023/01/24 03:10:46;;;;;;;19.10;11.38;;;;;;;-142.75;100.00;80121.03;5021985;28;20510;-68
2023/01/24 03:35:07;;;;;;;20.87;11.67;;;;;;;-142.75;100.00;80128.91;5020593;28;20052;-68
2023/01/24 03:40:16;;;;;;;24.67;12.77;;;;;;;-142.75;100.00;80142.69;5021030;28;20044;-67
2023/01/24 03:42:48;;;;;;;21.83;12.15;;;;;;;-142.75;100.00;80162.41;5022556;28;20037;-68
2023/01/24 03:45:25;;;;;;;20.17;11.60;;;;;;;-142.75;100.00;80146.63;5021123;28;20029;-68
2023/01/24 03:47:55;;;;;;;22.03;11.77;;;;;;;-142.75;100.00;80130.88;5020594;28;20060;-67
2023/01/24 03:53:10;;;;;;;21.53;11.57;;;;;;;-142.75;100.00;80144.66;5021174;28;20040;-67
2023/01/24 03:55:35;;;;;;;;;;;;;;;-142.75;100.00;80128.91;5021343;28;20072;-66
2023/01/24 03:58:02;;;;;;;21.97;12.00;;;;;;;-142.75;100.00;80140.72;5020266;28;20319;-68
2023/01/24 04:00:27;;;;;;;24.30;12.03;;;;;;;-142.75;100.00;80109.22;5020742;28;20423;-68
2023/01/24 04:02:53;;;;;;;23.23;12.40;;;;;;;-142.75;100.00;80115.13;5021027;28;20124;-68
2023/01/24 04:05:20;;;;;;;22.90;12.63;;;;;;;-142.75;100.00;80130.88;5031639;28;20160;-67
2023/01/24 04:07:46;;;;;;;24.87;13.30;;;;;;;-142.75;100.00;80148.59;5019845;28;20805;-68
2023/01/24 04:10:11;;;;;;;21.70;12.50;;;;;;;-142.75;100.00;80166.34;5002715;28;20028;-68
2023/01/24 04:12:37;;;;;;;22.85;12.50;;;;;;;-142.75;100.00;80136.78;5020124;28;20478;-67
2023/01/24 04:15:02;;;;;;;24.15;13.02;;;;;;;-142.75;100.00;80136.78;5020391;28;20083;-68
2023/01/24 04:17:28;;;;;;;24.20;12.88;;;;;;;-142.75;100.00;80142.69;5019518;28;20013;-68
2023/01/24 04:19:53;;;;;;;24.10;12.52;;;;;;;-142.75;100.00;80150.59;5019841;28;20025;-68
2023/01/24 04:22:18;;;;;;;24.65;13.18;;;;;;;-142.75;100.00;80140.72;5002347;28;20063;-68
2023/01/24 04:24:45;;;;;;;23.10;12.50;;;;;;;-142.75;100.00;80138.75;5020374;28;20112;-67
2023/01/24 04:27:10;;;;;;;;;;;;;;;-142.75;100.00;80154.53;5020075;28;20029;-67
2023/01/24 04:29:35;;;;;;;24.53;13.43;;;;;;;-142.75;100.00;80178.16;5020169;28;19979;-68
2023/01/24 04:32:01;;;;;;;22.48;12.82;;;;;;;-142.75;100.00;80142.69;5019836;28;20025;-68
2023/01/24 04:34:26;;;;;;;27.88;14.32;;;;;;;-142.75;100.00;80162.41;5020045;28;20107;-68
2023/01/24 04:36:51;;;;;;;23.35;12.77;;;;;;;-142.75;100.00;80154.53;5019998;28;20022;-68
2023/01/24 04:39:17;;;;;;;21.35;12.05;;;;;;;-142.75;100.00;80123.00;5020319;28;20025;-67
2023/01/24 04:41:42;;;;;;;26.75;14.35;;;;;;;-142.75;100.00;80123.00;5031849;28;20160;-68
2023/01/24 04:44:07;;;;;;;24.00;12.38;;;;;;;-142.75;100.00;80140.72;5032130;28;20029;-68
2023/01/24 04:46:33;;;;;;;21.58;13.15;;;;;;;-142.75;100.00;80113.16;5019297;28;20029;-67
2023/01/24 04:48:58;;;;;;;22.98;12.88;;;;;;;-142.75;100.00;80121.03;5019426;28;20025;-66
2023/01/24 04:51:23;;;;;;;26.00;13.00;;;;;;;-142.75;100.00;80117.09;5019732;28;20028;-66
2023/01/24 04:53:49;;;;;;;22.05;11.38;;;;;;;-142.75;100.00;80168.31;5020206;28;20029;-68
2023/01/24 04:56:14;;;;;;;23.20;12.13;;;;;;;-142.75;100.00;80164.38;5019420;28;20624;-67
2023/01/24 04:58:39;;;;;;;22.58;12.15;;;;;;;-142.75;100.00;80168.31;5019185;28;20526;-67
2023/01/24 05:01:05;;;;;;;22.20;12.93;;;;;;;-142.75;100.00;80170.28;5019577;28;20033;-67
2023/01/24 05:03:30;;;;;;;26.25;12.63;;;;;;;-142.75;100.00;80170.28;5019793;28;20144;-67
2023/01/24 05:05:56;;;;;;;20.77;11.52;;;;;;;-142.75;100.00;80166.34;5019825;28;20487;-66
2023/01/24 05:08:22;;;;;;;23.35;11.80;;;;;;;-142.75;100.00;80162.41;5018897;28;20029;-66
2023/01/24 05:10:47;;;;;;;21.60;10.80;;;;;;;-142.75;100.00;80178.16;5019672;28;20100;-68
2023/01/24 05:13:12;;;;;;;19.98;10.95;;;;;;;-142.75;100.00;80184.06;5019280;28;20025;-67
2023/01/24 05:15:38;;;;;;;22.33;11.35;;;;;;;-142.75;100.00;80168.31;5019449;28;20045;-67
2023/01/24 05:18:03;;;;;;;22.80;11.80;;;;;;;-142.75;100.00;80184.06;5019906;28;20121;-67
2023/01/24 05:20:29;;;;;;;23.75;12.40;;;;;;;-142.75;100.00;80160.44;5019642;28;20360;-68
2023/01/24 05:22:56;;;;;;;23.75;12.77;;;;;;;-142.75;100.00;80197.88;5019624;28;20083;-68
2023/01/24 05:25:21;;;;;;;22.33;12.47;;;;;;;-142.75;100.00;80176.19;5019584;28;20502;-65
2023/01/24 05:27:47;;;;;;;23.48;11.95;;;;;;;-142.75;100.00;80160.44;5018718;28;20033;-67
2023/01/24 05:30:12;;;;;;;21.42;11.80;;;;;;;-142.75;100.00;80166.34;5018864;28;20435;-67
2023/01/24 05:32:37;;;;;;;20.70;11.20;;;;;;;-142.75;100.00;80168.31;5019397;28;20060;-68
2023/01/24 05:35:04;;;;;;;23.30;12.55;;;;;;;-142.75;100.00;80152.56;5019312;28;20068;-68
2023/01/24 05:37:30;;;;;;;23.07;11.80;;;;;;;-142.75;100.00;80168.31;5018625;28;20032;-67
2023/01/24 05:39:55;;;;;;;18.17;10.13;;;;;;;-142.75;100.00;80156.50;5025513;28;20025;-67
2023/01/24 05:42:20;;;;;;;23.60;11.65;;;;;;;-142.75;100.00;80168.31;5038603;28;20040;-65
2023/01/24 05:44:46;;;;;;;21.55;12.25;;;;;;;-142.75;100.00;80176.19;5039453;28;20117;-67
2023/01/24 05:47:11;;;;;;;20.17;11.13;;;;;;;-142.75;100.00;80186.03;5019069;28;20195;-67
2023/01/24 05:49:36;;;;;;;23.08;11.38;;;;;;;-142.75;100.00;80188.00;5038207;28;20766;-66
2023/01/24 05:52:02;;;;;;;23.27;11.15;;;;;;;-142.75;100.00;80176.19;5020679;28;20025;-68
2023/01/24 05:54:27;;;;;;;23.02;12.10;;;;;;;-142.75;100.00;80217.56;5038728;28;20057;-67
2023/01/24 05:56:53;;;;;;;20.55;10.20;;;;;;;-142.75;100.00;80191.97;5038070;28;20474;-68
2023/01/24 05:59:18;;;;;;;21.42;10.35;;;;;;;-142.75;100.00;80166.34;5038624;28;20025;-68
2023/01/24 06:01:44;;;;;;;20.45;11.02;;;;;;;-142.75;100.00;80178.16;5020543;28;20128;-67
2023/01/24 06:04:09;;;;;;;18.95;11.13;;;;;;;-142.75;100.00;80158.47;5038593;28;20047;-68
2023/01/24 06:06:34;;;;;;;20.35;10.82;;;;;;;-142.75;100.00;80152.56;5022942;28;20049;-65
2023/01/24 06:09:00;;;;;;;21.77;11.38;;;;;;;-142.75;100.00;80166.34;5018622;28;20021;-67
2023/01/24 06:11:27;;;;;;;21.63;11.30;;;;;;;-142.75;100.00;80154.53;5018373;28;20120;-68
2023/01/24 06:13:54;;;;;;;21.87;12.00;;;;;;;-142.75;100.00;80142.69;5018817;28;20033;-67
2023/01/24 06:16:22;;;;;;;18.23;10.17;;;;;;;-142.75;100.00;80213.63;5025635;28;20530;-67
2023/01/24 06:18:50;;;;;;;23.10;11.73;;;;;;;-142.75;100.00;80229.38;5038349;28;20701;-67
2023/01/24 06:21:34;;;;;;;20.83;11.27;;;;;;;-142.75;100.00;80178.16;5038301;28;20033;-66
2023/01/24 06:24:00;;;;;;;18.77;10.53;;;;;;;-142.75;100.00;80217.56;5038277;28;20503;-68
2023/01/24 06:26:26;;;;;;;22.15;10.90;;;;;;;-142.75;100.00;80207.72;5038246;28;20025;-67
2023/01/24 06:28:52;;;;;;;19.52;10.55;;;;;;;-142.75;100.00;80188.00;5037883;28;20021;-68
2023/01/24 06:31:36;;;;;;;22.08;10.68;;;;;;;-142.75;100.00;80178.16;5033430;28;20032;-67
2023/01/24 06:34:39;;;;;;;23.30;11.03;;;;;;;-142.75;100.00;80189.97;5018468;28;20052;-68
2023/01/24 06:37:16;;;;;;;19.50;10.43;;;;;;;-142.75;100.00;80184.06;5017723;28;20049;-66
2023/01/24 06:39:49;;;;;;;20.53;11.60;;;;;;;-142.75;100.00;80189.97;5018658;28;20035;-66
2023/01/24 06:42:17;;;;;;;19.03;10.50;;;;;;;-142.75;100.00;80213.63;5020245;28;20033;-66
2023/01/24 06:44:42;;;;;;;17.47;9.37;;;;;;;-142.75;100.00;80223.47;5022012;28;20391;-67
2023/01/24 06:47:10;;;;;;;21.52;10.18;;;;;;;-142.75;100.00;80213.63;5003442;28;20021;-67
2023/01/24 06:49:35;;;;;;;21.27;11.07;;;;;;;-142.75;100.00;80213.63;5004357;28;20427;-66
2023/01/24 06:52:01;;;;;;;19.58;10.38;;;;;;;-142.75;100.00;80239.25;5022147;28;20055;-67
2023/01/24 06:54:26;;;;;;;21.63;10.35;;;;;;;-142.75;100.00;80253.03;5021687;28;20765;-67
2023/01/24 06:56:51;;;;;;;18.90;11.02;;;;;;;-142.75;100.00;80209.69;5021863;28;20513;-66
2023/01/24 06:59:17;;;;;;;18.80;10.18;;;;;;;-142.75;100.00;80184.06;5023197;28;20036;-67
2023/01/24 07:01:42;;;;;;;25.05;12.38;;;;;;;-142.75;100.00;80241.22;5020523;28;20021;-67
2023/01/24 07:04:07;;;;;;;20.77;11.05;;;;;;;-142.75;100.00;80235.31;5021385;28;20042;-67
2023/01/24 07:06:33;;;;;;;21.90;11.45;;;;;;;-142.75;100.00;80229.38;5038228;28;20021;-68
2023/01/24 07:08:58;;;;;;;19.00;10.77;;;;;;;-142.75;100.00;80219.53;5041119;28;20025;-67
2023/01/24 07:11:24;;;;;;;25.88;12.30;;;;;;;-142.75;100.00;80217.56;5041347;28;20436;-66
2023/01/24 07:13:49;;;;;;;19.15;10.15;;;;;;;-142.75;100.00;80223.47;5043315;28;20031;-66
2023/01/24 07:16:14;;;;;;;20.58;11.05;;;;;;;-142.75;100.00;80229.38;5041106;28;20791;-66
2023/01/24 07:18:40;;;;;;;21.45;11.18;;;;;;;-142.75;100.00;80205.75;5040548;28;20535;-66
2023/01/24 07:21:07;;;;;;;24.52;12.40;;;;;;;-142.75;100.00;80233.31;5034366;28;20037;-66
2023/01/24 07:23:34;;;;;;;20.90;11.13;;;;;;;-142.75;100.00;80243.19;5024079;28;20029;-65
2023/01/24 07:26:00;;;;;;;22.87;12.40;;;;;;;-142.75;100.00;80256.97;5021165;28;20550;-65
2023/01/24 07:28:26;;;;;;;27.87;12.83;;;;;;;-142.75;100.00;80239.25;5020385;28;20510;-64
2023/01/24 07:30:54;;;;;;;23.55;13.05;;;;;;;-142.75;100.00;80270.75;5021042;28;20021;-66
2023/01/24 07:33:20;;;;;;;24.00;12.70;;;;;;;-142.75;100.00;80260.91;5020763;28;20135;-65
2023/01/24 07:35:45;;;;;;;23.42;12.45;;;;;;;-142.75;100.00;80268.78;5003936;28;20115;-66
2023/01/24 07:38:13;;;;;;;26.40;12.93;;;;;;;-142.75;100.00;80247.13;5020272;28;20017;-67
2023/01/24 07:40:39;;;;;;;25.97;12.47;;;;;;;-142.75;100.00;80256.97;5003222;28;20025;-66
2023/01/24 07:43:05;;;;;;;27.52;13.65;;;;;;;-142.75;100.00;80264.84;5021033;28;20115;-66
2023/01/24 07:45:31;;;;;;;27.42;13.27;;;;;;;-142.75;100.00;80268.78;5020974;28;20048;-67
2023/01/24 07:47:58;;;;;;;23.80;12.67;;;;;;;-142.75;100.00;80282.59;5020154;28;20033;-62
2023/01/24 07:50:24;;;;;;;26.53;14.30;;;;;;;-142.75;100.00;80298.34;5003457;28;20754;-66
2023/01/24 07:52:51;;;;;;;26.57;12.63;;;;;;;-142.75;100.00;80294.41;5019927;28;20044;-66
2023/01/24 07:55:17;;;;;;;23.77;11.80;;;;;;;-142.75;100.00;80300.31;5028606;28;20032;-65
2023/01/24 07:57:42;;;;;;;26.33;13.07;;;;;;;-142.75;100.00;80316.09;5039558;28;20086;-66
2023/01/24 08:00:08;;;;;;;24.02;12.93;;;;;;;-142.75;100.00;80316.09;5022780;28;20036;-66
2023/01/24 08:02:33;;;;;;;25.92;12.98;;;;;;;-142.75;100.00;80312.16;5022647;28;20716;-67
2023/01/24 08:04:59;;;;;;;26.92;13.85;;;;;;;-142.75;100.00;80312.16;5023038;28;20013;-67
2023/01/24 08:07:24;;;;;;;27.73;14.70;;;;;;;-142.75;100.00;80312.16;5039653;28;20032;-66
2023/01/24 08:09:49;;;;;;;25.15;13.43;;;;;;;-142.75;100.00;80298.34;5040676;28;20651;-66
2023/01/24 08:12:15;;;;;;;29.00;14.05;;;;;;;-142.75;100.00;80286.53;5039995;28;20152;-67
2023/01/24 08:14:41;;;;;;;26.48;13.60;;;;;;;-142.75;100.00;80292.44;5040254;28;20021;-66
2023/01/24 08:17:06;;;;;;;25.40;13.77;;;;;;;-142.75;100.00;80316.09;5039549;28;20367;-68
2023/01/24 08:19:31;;;;;;;25.17;13.15;;;;;;;-142.75;100.00;80304.25;5040253;28;20047;-64
2023/01/24 08:21:57;;;;;;;26.17;13.63;;;;;;;-142.75;100.00;80288.50;5039934;28;20031;-64
2023/01/24 08:24:22;;;;;;;28.45;15.45;;;;;;;-142.75;100.00;80296.38;5039962;28;20039;-67
2023/01/24 08:26:48;;;;;;;32.78;14.80;;;;;;;-142.75;100.00;80323.97;5022236;28;20028;-67
2023/01/24 08:29:14;;;;;;;;;;;;;;;-142.75;100.00;80302.28;5020567;28;20123;-67
2023/01/24 08:31:39;;;;;;;25.07;12.33;;;;;;;-142.75;100.00;80304.25;5002472;28;20389;-66
2023/01/24 08:34:04;;;;;;;26.40;13.75;;;;;;;-142.75;100.00;80310.16;5031376;28;20028;-66
2023/01/24 08:36:30;;;;;;;28.35;14.63;;;;;;;-142.75;100.00;80284.56;5019822;28;20031;-66
2023/01/24 08:38:55;;;;;;;27.00;14.23;;;;;;;-142.75;100.00;80282.59;5019599;28;20017;-65
2023/01/24 08:41:20;;;;;;;26.48;13.10;;;;;;;-142.75;100.00;80302.28;5019833;28;20075;-64
2023/01/24 08:43:46;;;;;;;27.23;13.85;;;;;;;-142.75;100.00;80288.50;5002332;28;20025;-67
2023/01/24 08:46:11;;;;;;;27.42;14.27;;;;;;;-142.75;100.00;80280.63;5019628;28;20199;-66
2023/01/24 08:48:36;;;;;;;30.50;14.45;;;;;;;-142.75;100.00;80272.75;5019139;28;20036;-66
2023/01/24 08:51:03;;;;;;;28.73;14.05;;;;;;;-142.75;100.00;80278.66;5019570;28;20021;-67
2023/01/24 08:53:28;;;;;;;24.90;14.40;;;;;;;-142.75;100.00;80288.50;5019457;28;20029;-68
2023/01/24 08:55:54;;;;;;;33.67;15.93;;;;;;;-142.75;100.00;80280.63;5019854;28;20036;-66
2023/01/24 08:58:20;;;;;;;27.27;14.63;;;;;;;-142.75;100.00;80310.16;5001016;28;20026;-66
2023/01/24 09:00:46;;;;;;;28.73;14.53;;;;;;;-142.75;100.00;80318.06;5002075;28;20021;-65
2023/01/24 09:03:14;;;;;;;29.05;15.18;;;;;;;-142.75;100.00;80290.47;5019214;28;20896;-66
2023/01/24 09:05:39;;;;;;;28.03;13.83;;;;;;;-142.75;100.00;80288.50;5019199;28;20025;-65
2023/01/24 09:08:05;;;;;;;30.52;14.90;;;;;;;-142.75;100.00;80276.69;5018719;28;20083;-66
2023/01/24 09:10:30;;;;;;;29.73;14.65;;;;;;;-142.75;100.00;80272.75;5001929;28;20022;-66
2023/01/24 09:12:56;;;;;;;30.90;15.27;;;;;;;-142.75;100.00;80284.56;5018972;28;20426;-64
2023/01/24 09:15:22;;;;;;;25.52;13.88;;;;;;;-142.75;100.00;80290.47;5019094;28;20098;-66
2023/01/24 09:17:47;;;;;;;29.92;15.50;;;;;;;-142.75;100.00;80292.44;5001142;28;20581;-65
2023/01/24 09:20:12;;;;;;;31.13;14.95;;;;;;;-142.75;100.00;80298.34;5019196;28;20036;-67
2023/01/24 09:22:38;;;;;;;27.55;14.02;;;;;;;-142.75;100.00;80320.03;5018889;28;20045;-66
2023/01/24 09:25:04;;;;;;;30.33;14.90;;;;;;;-142.75;100.00;80320.03;5017814;28;20029;-69
2023/01/24 09:27:29;;;;;;;30.67;14.15;;;;;;;-142.75;100.00;80316.09;5018604;28;20025;-67
2023/01/24 09:29:54;;;;;;;31.90;14.43;;;;;;;-142.75;100.00;80320.03;5019494;28;20028;-67
2023/01/24 09:32:20;;;;;;;29.77;13.80;;;;;;;-142.75;100.00;80322.00;5001245;28;20553;-66
2023/01/24 09:34:48;;;;;;;30.00;14.57;;;;;;;-142.75;100.00;80320.03;5001243;28;20029;-67
2023/01/24 09:37:18;;;;;;;27.73;14.10;;;;;;;-142.75;100.00;80304.25;5018403;28;20116;-66
2023/01/24 09:39:43;;;;;;;29.93;13.97;;;;;;;-142.75;100.00;80322.00;5001064;28;20018;-65
2023/01/24 09:42:09;;;;;;;28.95;13.75;;;;;;;-142.75;100.00;80325.94;5018419;28;20052;-64
2023/01/24 09:44:42;;;;;;;27.92;14.27;;;;;;;-142.75;100.00;80327.91;5001083;28;20041;-67
2023/01/24 09:47:26;;;;;;;34.57;15.23;;;;;;;-142.75;100.00;80339.72;5018066;28;20809;-65
2023/01/24 09:50:05;;;;;;;29.13;13.77;;;;;;;-142.75;100.00;80347.59;5001361;28;20025;-66
2023/01/24 09:52:39;;;;;;;38.73;17.70;;;;;;;-142.75;100.00;80331.84;5000991;28;20025;-68
2023/01/24 09:55:28;;;;;;;29.93;15.97;;;;;;;-142.75;100.00;80323.97;5018610;28;20025;-67
2023/01/24 09:58:31;;;;;;;31.17;14.97;;;;;;;-142.75;100.00;80325.94;5018287;28;20060;-67
2023/01/24 10:01:05;;;;;;;31.70;14.53;;;;;;;-142.75;100.00;80329.88;4994294;28;20037;-63
2023/01/24 10:03:31;;;;;;;25.10;12.57;;;;;;;-142.75;100.00;80333.81;5001048;28;20025;-66
2023/01/24 10:06:04;;;;;;;28.43;13.67;;;;;;;-142.75;100.00;80331.84;5018542;28;20120;-65
2023/01/24 10:09:14;;;;;;;29.17;14.13;;;;;;;-142.75;100.00;80312.16;5000124;28;20025;-68
2023/01/24 10:11:55;;;;;;;28.37;14.07;;;;;;;-142.75;100.00;80331.84;4918376;29;20032;-66
2023/01/24 10:14:32;;;;;;;33.30;14.67;;;;;;;-142.75;100.00;80320.03;5014338;28;20071;-65
2023/01/24 10:17:19;;;;;;;27.50;14.48;;;;;;;-142.75;100.00;80327.91;5019645;28;20021;-64
2023/01/24 10:19:50;;;;;;;31.38;14.80;;;;;;;-142.75;100.00;80333.81;5004909;28;20065;-65
2023/01/24 10:22:37;;;;;;;32.07;14.87;;;;;;;-142.75;100.00;80316.09;5022472;28;20035;-67
2023/01/24 10:25:05;;;;;;;34.25;15.25;;;;;;;-142.75;100.00;80308.19;5022644;28;20021;-66
2023/01/24 10:27:35;;;;;;;31.77;15.40;;;;;;;-142.75;100.00;80312.16;5021591;28;20076;-68
2023/01/24 10:30:13;;;;;;;30.10;14.90;;;;;;;-142.75;100.00;80327.91;5004614;28;20029;-66
2023/01/24 10:32:43;;;;;;;29.13;14.13;;;;;;;-142.75;100.00;80292.44;5022672;28;20124;-65
2023/01/24 10:35:25;;;;;;;28.07;14.27;;;;;;;-142.75;100.00;80288.50;5022528;28;20065;-66
2023/01/24 10:37:55;;;;;;;34.27;14.57;;;;;;;-142.75;100.00;80290.47;5021811;28;20029;-65
2023/01/24 10:40:22;;;;;;;30.47;14.77;;;;;;;-142.75;100.00;80284.56;5022378;28;20036;-64
2023/01/24 10:42:47;;;;;;;31.83;15.33;;;;;;;-142.75;100.00;80264.84;5004352;28;20506;-66
2023/01/24 10:45:39;;;;;;;30.00;15.18;;;;;;;-142.75;100.00;80288.50;5004286;28;20029;-67
2023/01/24 10:48:18;;;;;;;33.53;15.80;;;;;;;-142.75;100.00;80282.59;5021211;28;20033;-66
2023/01/24 10:50:44;;;;;;;32.40;15.73;;;;;;;-142.75;100.00;80323.97;5022237;28;20816;-67
2023/01/24 10:53:14;;;;;;;;;;;;;;;-142.75;100.00;80306.22;5022199;28;20013;-66
2023/01/24 10:55:39;;;;;;;26.23;13.87;;;;;;;-142.75;100.00;80308.19;5021853;28;19917;-66
2023/01/24 10:58:26;;;;;;;33.45;16.10;;;;;;;-142.75;100.00;80298.34;5021289;28;20021;-66
2023/01/24 11:00:57;;;;;;;28.27;14.00;;;;;;;-142.75;100.00;80300.31;5022377;28;20025;-65
2023/01/24 11:03:27;;;;;;;35.07;14.90;;;;;;;-142.75;100.00;80308.19;5021373;28;20037;-65
2023/01/24 11:05:54;;;;;;;30.73;14.77;;;;;;;-142.75;100.00;80292.44;5021854;28;20029;-67
2023/01/24 11:08:25;;;;;;;29.77;14.23;;;;;;;-142.75;100.00;80314.13;5021093;28;20033;-66
2023/01/24 11:10:54;;;;;;;28.77;13.47;;;;;;;-142.75;100.00;80327.91;5021837;28;20033;-66
2023/01/24 11:13:34;;;;;;;28.07;14.60;;;;;;;-142.75;100.00;80292.44;5021507;28;20583;-66
2023/01/24 11:16:03;;;;;;;32.67;14.30;;;;;;;-142.75;100.00;80280.63;5027185;28;20385;-66
2023/01/24 11:18:30;;;;;;;27.57;13.93;;;;;;;-142.75;100.00;80298.34;5022400;28;20032;-67
2023/01/24 11:21:11;;;;;;;30.10;13.73;;;;;;;-142.75;100.00;80292.44;5041271;28;20032;-65
2023/01/24 11:23:37;;;;;;;28.63;14.53;;;;;;;-142.75;100.00;80304.25;5041263;28;20486;-66
2023/01/24 11:26:06;;;;;;;;;;;;;;;-142.75;100.00;80302.28;5042078;28;20029;-66
2023/01/24 11:28:34;;;;;;;30.83;13.63;;;;;;;-142.75;100.00;80292.44;5040125;28;19917;-65
2023/01/24 11:31:03;;;;;;;27.83;13.30;;;;;;;-142.75;100.00;80280.63;5040967;28;20035;-68
2023/01/24 11:33:57;;;;;;;28.63;13.53;;;;;;;-142.75;100.00;80296.38;5028537;28;20022;-66